Time;durP1;ratioP1;P1;durP2;ratioP2;P2;SDS_P1;SDS_P2;PMS_P1;PMS_P2;Temp;Humidity;BMP_temperature;BMP_pressure;BME280_temperature;BME280_humidity;BME280_pressure;Samples;Min_cycle;Max_cycle;Signal;HPM_P1;HPM_P2
2021/11/07 00:05:03;;;;;;;2.40;1.88;;;;;;;26.13;33.69;97326.75;5030565;28;20581;-37
2021/11/07 00:07:40;;;;;;;2.67;1.80;;;;;;;26.13;33.63;97332.00;5032647;28;20033;-32
2021/11/07 00:10:17;;;;;;;2.97;1.67;;;;;;;26.14;33.69;97341.56;5029772;28;20070;-34
2021/11/07 00:12:43;;;;;;;2.00;1.70;;;;;;;26.13;33.64;97343.38;5027779;28;20029;-33
2021/11/07 00:15:10;;;;;;;2.58;1.75;;;;;;;26.12;33.65;97322.41;5026933;28;20391;-31
2021/11/07 00:17:36;;;;;;;1.67;1.52;;;;;;;26.12;33.65;97325.88;5033891;28;20017;-31
2021/11/07 00:20:09;;;;;;;3.33;1.90;;;;;;;26.12;33.59;97325.03;5026930;28;20100;-30
2021/11/07 00:25:46;;;;;;;2.50;1.67;;;;;;;26.12;33.77;97335.56;5001268;28;20033;-35
2021/11/07 00:28:22;;;;;;;3.80;1.95;;;;;;;26.10;33.62;97325.94;5028916;28;20021;-34
2021/11/07 00:36:34;;;;;;;2.22;1.80;;;;;;;26.10;33.58;97325.13;5025918;28;20048;-37
2021/11/07 00:44:05;;;;;;;2.05;1.63;;;;;;;26.08;33.53;97338.31;5028687;28;20109;-33
2021/11/07 00:49:22;;;;;;;1.85;1.50;;;;;;;26.08;33.67;97343.56;5025327;28;20029;-32
2021/11/07 00:57:15;;;;;;;2.38;1.80;;;;;;;26.07;33.51;97341.88;5029726;28;20024;-37
2021/11/07 01:00:16;;;;;;;1.77;1.50;;;;;;;26.06;33.60;97332.28;5027401;28;20048;-34
2021/11/07 01:02:34;;;;;;;3.00;1.42;;;;;;;26.07;33.62;97330.50;5026934;28;20033;-33
2021/11/07 01:05:00;;;;;;;1.45;1.35;;;;;;;26.06;33.60;97324.41;5030972;28;20361;-28
2021/11/07 01:07:26;;;;;;;1.70;1.52;;;;;;;26.06;33.54;97340.16;5032196;28;20025;-31
2021/11/07 01:09:52;;;;;;;2.63;1.50;;;;;;;26.07;33.47;97347.13;5029345;28;20045;-32
2021/11/07 01:12:17;;;;;;;2.30;1.60;;;;;;;26.06;33.41;97340.16;5035981;28;20051;-34
2021/11/07 01:14:43;;;;;;;2.28;1.50;;;;;;;26.07;33.59;97333.97;5030135;28;20499;-34
2021/11/07 01:17:08;;;;;;;6.35;1.70;;;;;;;26.06;33.51;97324.41;5045492;28;20026;-33
2021/11/07 01:19:34;;;;;;;2.35;1.40;;;;;;;26.06;33.38;97313.91;5025845;28;20415;-30
2021/11/07 01:22:02;;;;;;;3.63;1.80;;;;;;;26.06;33.51;97298.16;5026376;28;20060;-32
2021/11/07 01:24:35;;;;;;;2.03;1.40;;;;;;;26.05;33.53;97285.91;5026474;28;20689;-32
2021/11/07 01:27:20;;;;;;;2.13;1.50;;;;;;;26.06;33.49;97286.78;5029852;28;20028;-32
2021/11/07 01:29:50;;;;;;;4.13;1.50;;;;;;;26.04;33.35;97262.34;5023422;28;20135;-36
2021/11/07 01:32:16;;;;;;;1.65;1.45;;;;;;;26.03;33.51;97256.25;5027320;28;20711;-32
2021/11/07 01:34:53;;;;;;;1.83;1.30;;;;;;;26.04;33.36;97257.94;5026872;28;20029;-33
2021/11/07 01:37:21;;;;;;;2.25;1.50;;;;;;;26.04;33.31;97243.97;5031645;28;20080;-33
2021/11/07 01:39:57;;;;;;;1.52;1.23;;;;;;;26.02;33.46;97249.31;5027023;28;20042;-33
2021/11/07 01:42:36;;;;;;;2.20;1.50;;;;;;;26.03;33.40;97256.25;5045844;28;20113;-39
2021/11/07 01:45:16;;;;;;;1.90;1.42;;;;;;;26.03;33.39;97265.91;5029123;28;20021;-33
2021/11/07 01:47:49;;;;;;;1.80;1.35;;;;;;;26.02;33.49;97272.09;5031259;28;20036;-33
2021/11/07 01:50:15;;;;;;;1.55;1.20;;;;;;;26.01;33.59;97268.59;5032215;28;20025;-31
2021/11/07 01:52:42;;;;;;;2.30;1.48;;;;;;;26.01;33.48;97254.63;5034725;28;20544;-36
2021/11/07 01:55:08;;;;;;;2.42;1.40;;;;;;;26.02;33.29;97248.44;5035214;28;20040;-31
2021/11/07 01:57:35;;;;;;;1.55;1.20;;;;;;;26.02;33.50;97244.06;5028895;28;20036;-32
2021/11/07 02:00:22;;;;;;;1.27;1.10;;;;;;;26.01;33.35;97263.34;5029983;28;20063;-36
2021/11/07 02:02:47;;;;;;;1.70;1.02;;;;;;;26.01;33.43;97258.09;5032818;28;20032;-33
2021/11/07 02:05:13;;;;;;;4.47;1.20;;;;;;;26.02;33.45;97243.19;5028437;28;20868;-32
2021/11/07 02:07:38;;;;;;;1.67;1.30;;;;;;;26.01;33.45;97244.13;5026162;28;20025;-34
2021/11/07 02:10:05;;;;;;;2.97;1.17;;;;;;;26.00;33.44;97250.31;5029237;28;20056;-32
2021/11/07 02:12:31;;;;;;;1.63;1.20;;;;;;;26.00;33.37;97247.69;5030807;28;20045;-31
2021/11/07 02:14:57;;;;;;;1.60;1.30;;;;;;;25.98;33.32;97234.63;5031194;28;20561;-35
2021/11/07 02:17:22;;;;;;;1.25;1.10;;;;;;;25.98;33.27;97224.13;5028256;28;20064;-34
2021/11/07 02:19:48;;;;;;;2.13;1.35;;;;;;;25.98;33.27;97236.38;5030973;28;20132;-32
2021/11/07 02:22:14;;;;;;;1.50;1.30;;;;;;;25.97;33.28;97230.28;5032222;28;20032;-34
2021/11/07 02:24:41;;;;;;;1.45;1.30;;;;;;;25.98;33.32;97216.25;5032595;28;21020;-34
2021/11/07 02:27:06;;;;;;;1.25;1.10;;;;;;;25.98;33.31;97200.47;5032938;28;20052;-33
2021/11/07 02:29:33;;;;;;;1.83;1.30;;;;;;;25.97;33.53;97183.00;5029784;28;20561;-34
2021/11/07 02:31:58;;;;;;;1.50;1.13;;;;;;;25.96;33.44;97176.91;5035120;28;20509;-34
2021/11/07 02:34:24;;;;;;;3.45;1.30;;;;;;;25.96;33.29;97182.16;5025626;28;20029;-35
2021/11/07 02:36:50;;;;;;;1.63;1.30;;;;;;;25.96;33.31;97187.41;5031311;28;20018;-36
2021/11/07 02:39:16;;;;;;;1.27;1.00;;;;;;;25.96;33.29;97191.81;5029397;28;20029;-31
2021/11/07 02:41:42;;;;;;;5.55;1.27;;;;;;;25.96;33.38;97203.19;5032709;28;20581;-36
2021/11/07 02:44:08;;;;;;;1.23;1.10;;;;;;;25.96;33.27;97197.06;5029859;28;20034;-31
2021/11/07 02:46:33;;;;;;;1.75;1.15;;;;;;;25.96;33.36;97183.94;5031956;28;20036;-31
2021/11/07 02:48:59;;;;;;;1.00;0.90;;;;;;;25.95;33.29;97196.22;5032143;28;20510;-33
2021/11/07 02:51:27;;;;;;;1.75;1.15;;;;;;;25.95;33.25;97208.50;5034600;28;20056;-37
2021/11/07 02:53:52;;;;;;;5.00;1.20;;;;;;;25.95;33.24;97216.38;5030297;28;20040;-35
2021/11/07 02:56:18;;;;;;;1.48;1.13;;;;;;;25.95;33.26;97208.50;5031520;28;20029;-33
2021/11/07 02:58:45;;;;;;;2.00;0.95;;;;;;;25.95;33.36;97213.75;5029549;28;20022;-31
2021/11/07 03:01:10;;;;;;;6.03;1.65;;;;;;;25.94;33.16;97231.25;5033436;28;20079;-32
2021/11/07 03:03:36;;;;;;;10.50;1.70;;;;;;;25.93;33.01;97224.31;5028019;28;20602;-34
2021/11/07 03:06:02;;;;;;;1.33;1.23;;;;;;;25.92;33.27;97211.25;5030527;28;20029;-35
2021/11/07 03:08:28;;;;;;;1.88;1.33;;;;;;;25.89;33.23;97196.50;5031615;28;20770;-35
2021/11/07 03:10:54;;;;;;;1.52;1.10;;;;;;;25.91;33.33;97210.44;5043478;28;20017;-31
2021/11/07 03:13:20;;;;;;;1.20;1.10;;;;;;;25.91;33.35;97226.19;5032756;28;20083;-35
2021/11/07 03:15:45;;;;;;;1.58;0.80;;;;;;;25.91;33.38;97226.19;5031853;28;20532;-29
2021/11/07 03:18:12;;;;;;;1.05;0.90;;;;;;;25.90;33.37;97219.19;5032094;28;20036;-31
2021/11/07 03:20:37;;;;;;;1.52;1.17;;;;;;;25.91;33.33;97218.31;5026295;28;20103;-34
2021/11/07 03:23:04;;;;;;;0.90;0.90;;;;;;;25.92;33.38;97232.25;5045404;28;20033;-35
2021/11/07 03:25:30;;;;;;;2.05;1.17;;;;;;;25.92;33.23;97232.25;5046539;28;20192;-33
2021/11/07 03:27:56;;;;;;;1.33;1.08;;;;;;;25.91;33.28;97235.81;5045385;28;20024;-33
2021/11/07 03:33:13;;;;;;;2.13;1.08;;;;;;;25.90;33.41;97219.19;5031295;28;20111;-40
2021/11/07 03:35:38;;;;;;;1.40;1.00;;;;;;;25.91;33.24;97220.06;5030935;28;20060;-35
2021/11/07 03:38:04;;;;;;;1.88;1.23;;;;;;;25.89;33.31;97209.63;5030803;28;20028;-32
2021/11/07 03:40:29;;;;;;;1.52;0.90;;;;;;;25.91;33.31;97225.31;5031286;28;20252;-33
2021/11/07 03:42:56;;;;;;;1.30;1.20;;;;;;;25.89;33.43;97217.50;5032251;28;20175;-36
2021/11/07 03:45:21;;;;;;;5.55;1.20;;;;;;;25.90;33.27;97213.13;5027516;28;20033;-31
2021/11/07 03:47:47;;;;;;;1.52;1.05;;;;;;;25.91;33.19;97220.06;5032577;28;20037;-32
2021/11/07 03:50:13;;;;;;;3.00;1.10;;;;;;;25.89;33.22;97220.13;5033334;28;20501;-30
2021/11/07 03:52:38;;;;;;;0.93;0.93;;;;;;;25.90;33.39;97221.00;5030344;28;20029;-35
2021/11/07 03:55:06;;;;;;;2.50;1.10;;;;;;;25.90;33.32;97227.06;5031689;28;20659;-34
2021/11/07 03:57:31;;;;;;;0.80;0.80;;;;;;;25.89;33.42;97214.03;5031608;28;20032;-35
2021/11/07 03:59:56;;;;;;;1.65;1.20;;;;;;;25.89;33.25;97206.16;5027773;28;22936;-32
2021/11/07 04:02:22;;;;;;;1.05;1.00;;;;;;;25.88;33.25;97201.81;5030715;28;20074;-36
2021/11/07 04:04:47;;;;;;;2.03;1.10;;;;;;;25.88;33.26;97193.94;5026470;28;20029;-32
2021/11/07 04:07:13;;;;;;;1.23;0.90;;;;;;;25.87;33.29;97179.13;5026540;28;20029;-32
2021/11/07 04:09:38;;;;;;;1.00;0.90;;;;;;;25.87;33.29;97161.59;5029524;28;20037;-36
2021/11/07 04:12:04;;;;;;;1.98;1.13;;;;;;;25.86;33.35;97159.91;5031961;28;20051;-30
2021/11/07 04:14:33;;;;;;;1.42;1.08;;;;;;;25.87;33.38;97158.13;5028449;28;20028;-31
2021/11/07 04:17:00;;;;;;;0.98;0.88;;;;;;;25.87;33.32;97161.59;5030711;28;20414;-36
2021/11/07 04:19:26;;;;;;;1.70;1.30;;;;;;;25.86;33.22;97164.28;5022890;28;20037;-31
2021/11/07 04:21:53;;;;;;;1.30;0.98;;;;;;;25.86;33.10;97164.28;5030121;28;20503;-31
2021/11/07 04:24:18;;;;;;;1.40;0.90;;;;;;;25.86;33.22;97172.19;5031733;28;20120;-31
2021/11/07 04:26:43;;;;;;;1.77;1.02;;;;;;;25.86;33.16;97180.06;5029459;28;20090;-34
2021/11/07 04:29:09;;;;;;;1.10;0.80;;;;;;;25.82;33.29;97174.94;5029150;28;20182;-31
2021/11/07 04:31:34;;;;;;;1.05;0.95;;;;;;;25.85;33.27;97191.47;5027984;28;20040;-31
2021/11/07 04:33:59;;;;;;;0.90;0.90;;;;;;;25.84;33.38;97180.13;5026974;28;20099;-36
2021/11/07 04:36:25;;;;;;;0.90;0.80;;;;;;;25.83;33.22;97176.63;5030377;28;20082;-36
2021/11/07 04:38:50;;;;;;;1.08;0.88;;;;;;;25.83;33.20;97160.88;5030109;28;20821;-31
2021/11/07 04:41:17;;;;;;;1.23;0.90;;;;;;;25.83;33.37;97155.63;5027580;28;20473;-32
2021/11/07 04:43:43;;;;;;;1.65;0.90;;;;;;;25.83;33.20;97150.38;5028418;28;20740;-34
2021/11/07 04:46:08;;;;;;;1.02;0.90;;;;;;;25.82;33.19;97151.31;5029114;28;20040;-34
2021/11/07 04:48:35;;;;;;;2.53;0.90;;;;;;;25.82;33.32;97151.31;5028366;28;20094;-34
2021/11/07 04:51:00;;;;;;;1.42;1.00;;;;;;;25.83;33.33;97146.91;5029035;28;20426;-35
2021/11/07 04:53:25;;;;;;;0.82;0.82;;;;;;;25.82;33.34;97139.97;5026915;28;20037;-33
2021/11/07 04:55:51;;;;;;;0.70;0.70;;;;;;;25.82;33.31;97130.31;5027651;28;20037;-32
2021/11/07 04:58:17;;;;;;;1.38;0.90;;;;;;;25.82;33.11;97125.06;5029424;28;20091;-36
2021/11/07 05:00:43;;;;;;;1.27;0.70;;;;;;;25.82;33.27;97127.69;5030225;28;20025;-32
2021/11/07 05:03:09;;;;;;;1.38;0.98;;;;;;;25.81;33.32;97115.50;5029978;28;20554;-33
2021/11/07 05:05:34;;;;;;;1.17;1.00;;;;;;;25.81;33.21;97115.50;5035583;28;20032;-34
2021/11/07 05:08:00;;;;;;;1.25;0.85;;;;;;;25.81;33.36;97115.50;5032531;28;20026;-34
2021/11/07 05:10:25;;;;;;;1.40;0.90;;;;;;;25.80;33.34;97113.78;5026770;28;20047;-36
2021/11/07 05:12:51;;;;;;;1.50;0.80;;;;;;;25.80;33.27;97116.41;5028209;28;20075;-34
2021/11/07 05:15:16;;;;;;;1.30;0.68;;;;;;;25.80;33.19;97115.56;5025836;28;20061;-35
2021/11/07 05:17:42;;;;;;;0.85;0.85;;;;;;;25.79;33.24;97119.97;5041875;28;20045;-29
2021/11/07 05:20:08;;;;;;;2.70;1.00;;;;;;;25.79;33.35;97111.25;5030317;28;20029;-33
2021/11/07 05:22:34;;;;;;;0.73;0.73;;;;;;;25.78;33.28;97115.63;5028040;28;20034;-29
2021/11/07 05:24:59;;;;;;;2.03;0.90;;;;;;;25.79;33.32;97114.72;5028446;28;20071;-35
2021/11/07 05:27:24;;;;;;;0.93;0.70;;;;;;;25.79;33.33;97112.09;5029028;28;20028;-37
2021/11/07 05:29:50;;;;;;;1.67;0.90;;;;;;;25.78;33.21;97118.25;5024799;28;21225;-37
2021/11/07 05:32:15;;;;;;;1.10;0.70;;;;;;;25.78;33.30;97120.88;5028949;28;20333;-31
2021/11/07 05:34:41;;;;;;;0.77;0.73;;;;;;;25.77;33.18;97108.69;5024767;28;20033;-38
2021/11/07 05:37:07;;;;;;;1.52;0.93;;;;;;;25.77;33.29;97124.44;5028655;28;20032;-34
2021/11/07 05:39:33;;;;;;;1.75;0.90;;;;;;;25.77;33.25;97127.06;5028339;28;20514;-35
2021/11/07 05:41:58;;;;;;;1.95;0.70;;;;;;;25.78;33.17;97134.00;5029492;28;20035;-38
2021/11/07 05:44:24;;;;;;;0.70;0.60;;;;;;;25.78;33.17;97133.16;5043941;28;20029;-35
2021/11/07 05:46:49;;;;;;;2.08;0.80;;;;;;;25.77;33.42;97120.94;5028581;28;20025;-34
2021/11/07 05:49:15;;;;;;;0.80;0.80;;;;;;;25.77;33.16;97118.31;5025899;28;20033;-36
2021/11/07 05:51:40;;;;;;;0.73;0.73;;;;;;;25.76;33.30;97101.72;5028510;28;20041;-37
2021/11/07 05:54:05;;;;;;;1.60;0.65;;;;;;;25.76;33.44;97080.75;5028785;28;20561;-33
2021/11/07 05:56:31;;;;;;;2.13;0.95;;;;;;;25.75;33.19;97086.91;5029206;28;20028;-34
2021/11/07 05:58:57;;;;;;;0.50;0.50;;;;;;;25.75;33.32;97084.28;5029537;28;20025;-36
2021/11/07 06:01:22;;;;;;;1.40;0.90;;;;;;;25.76;33.25;97079.88;5027539;28;20025;-34
2021/11/07 06:03:47;;;;;;;3.92;0.60;;;;;;;25.74;33.38;97079.94;5026941;28;21857;-31
2021/11/07 06:06:13;;;;;;;0.70;0.70;;;;;;;25.75;33.36;97080.81;5021592;28;20029;-34
2021/11/07 06:08:38;;;;;;;0.77;0.60;;;;;;;25.75;33.32;97083.44;5021177;28;20474;-30
2021/11/07 06:11:04;;;;;;;0.70;0.70;;;;;;;25.75;33.09;97076.41;5028409;28;20993;-37
2021/11/07 06:13:29;;;;;;;1.48;0.88;;;;;;;25.76;33.14;97070.22;5025940;28;20040;-30
2021/11/07 06:15:55;;;;;;;0.85;0.77;;;;;;;25.76;33.29;97058.88;5025960;28;20287;-30
2021/11/07 06:18:21;;;;;;;1.10;0.70;;;;;;;25.75;33.11;97055.41;5027710;28;20055;-35
2021/11/07 06:20:46;;;;;;;2.70;0.93;;;;;;;25.76;33.21;97053.63;5027971;28;20033;-36
2021/11/07 06:23:11;;;;;;;1.05;0.52;;;;;;;25.76;33.32;97051.00;5028606;28;20040;-31
2021/11/07 06:25:37;;;;;;;0.93;0.80;;;;;;;25.77;33.30;97066.69;5025465;28;20025;-35
2021/11/07 06:28:04;;;;;;;2.13;0.82;;;;;;;25.75;33.09;97052.78;5026944;28;20447;-38
2021/11/07 06:30:30;;;;;;;0.65;0.65;;;;;;;25.75;33.21;97058.03;5032003;28;20040;-31
2021/11/07 06:32:55;;;;;;;0.80;0.68;;;;;;;25.76;33.16;97054.50;5030508;28;20028;-34
2021/11/07 06:35:20;;;;;;;1.13;0.85;;;;;;;25.76;33.14;97053.63;5031729;28;20033;-35
2021/11/07 06:37:46;;;;;;;1.00;0.90;;;;;;;25.76;33.25;97033.50;5030744;28;20060;-34
2021/11/07 06:40:12;;;;;;;1.48;0.75;;;;;;;25.76;33.25;97033.50;5032970;28;20025;-33
2021/11/07 06:42:38;;;;;;;0.90;0.90;;;;;;;25.77;33.29;97029.06;5028374;28;20025;-32
2021/11/07 06:45:03;;;;;;;0.68;0.68;;;;;;;25.76;33.29;97032.63;5030916;28;20033;-34
2021/11/07 06:47:29;;;;;;;1.05;0.50;;;;;;;25.76;33.24;97030.88;5029230;28;20147;-33
2021/11/07 06:49:55;;;;;;;1.88;0.90;;;;;;;25.75;33.18;97031.78;5030085;28;20029;-35
2021/11/07 06:52:20;;;;;;;0.80;0.77;;;;;;;25.76;33.30;97049.22;5030821;28;20079;-35
2021/11/07 06:54:47;;;;;;;1.83;0.90;;;;;;;25.77;33.17;97058.81;5028081;28;20131;-31
2021/11/07 06:57:12;;;;;;;0.73;0.73;;;;;;;25.77;33.17;97056.19;5029602;28;20024;-30
2021/11/07 06:59:39;;;;;;;2.30;0.80;;;;;;;25.78;33.18;97064.91;5030131;28;20048;-33
2021/11/07 07:02:04;;;;;;;0.70;0.70;;;;;;;25.78;33.25;97063.13;5031995;28;20365;-32
2021/11/07 07:04:30;;;;;;;0.60;0.60;;;;;;;25.79;33.29;97069.22;5027358;28;20036;-33
2021/11/07 07:06:55;;;;;;;0.82;0.82;;;;;;;25.79;33.05;97059.59;5029180;28;20029;-34
2021/11/07 07:09:29;;;;;;;0.82;0.80;;;;;;;25.79;33.04;97043.84;5029293;28;20025;-30
2021/11/07 07:12:09;;;;;;;0.90;0.88;;;;;;;25.80;33.14;97053.41;5024292;28;20029;-34
2021/11/07 07:15:05;;;;;;;0.77;0.70;;;;;;;25.81;33.09;97035.88;5024220;28;20106;-30
2021/11/07 07:35:38;;;;;;;24.02;5.65;;;;;;;25.80;33.26;97029.78;5026288;28;20365;-32
2021/11/07 07:38:03;;;;;;;15.70;4.63;;;;;;;25.81;33.29;97025.38;5037695;28;20036;-33
2021/11/07 07:40:28;;;;;;;19.45;5.20;;;;;;;25.81;33.33;97030.63;5025124;28;20038;-32
2021/11/07 07:42:54;;;;;;;11.38;4.10;;;;;;;25.82;33.23;97021.84;5026244;28;20032;-34
2021/11/07 07:45:20;;;;;;;10.57;3.88;;;;;;;25.81;33.35;97026.22;5024568;28;20037;-29
2021/11/07 07:47:45;;;;;;;19.70;4.60;;;;;;;25.82;33.25;97027.91;4998482;28;20096;-30
2021/11/07 07:50:11;;;;;;;8.88;2.78;;;;;;;25.82;32.94;97033.16;5022347;28;21062;-34
2021/11/07 07:52:37;;;;;;;8.30;3.40;;;;;;;25.83;33.05;97039.28;5040248;28;20480;-32
2021/11/07 07:55:04;;;;;;;12.00;3.35;;;;;;;25.83;33.24;97044.53;5026139;28;20042;-34
2021/11/07 07:57:30;;;;;;;8.63;2.97;;;;;;;25.85;33.17;97047.91;5023328;28;20110;-30
2021/11/07 07:59:55;;;;;;;9.45;4.53;;;;;;;25.83;31.64;97050.63;5022844;28;20033;-31
2021/11/07 08:02:21;;;;;;;11.30;3.42;;;;;;;25.81;32.26;97041.97;5021360;28;20048;-29
2021/11/07 08:04:46;;;;;;;7.03;2.97;;;;;;;25.82;32.51;97033.16;5038948;28;20398;-33
2021/11/07 08:07:12;;;;;;;7.18;3.53;;;;;;;25.81;32.58;97020.97;5041612;28;20485;-31
2021/11/07 08:09:37;;;;;;;9.85;3.35;;;;;;;25.82;32.64;97025.28;5024859;28;20655;-31
2021/11/07 08:12:03;;;;;;;9.88;2.90;;;;;;;25.82;32.74;97033.16;5031307;28;20057;-36
2021/11/07 08:14:28;;;;;;;10.52;3.90;;;;;;;25.83;32.90;97028.78;5027903;28;20037;-34
2021/11/07 08:16:54;;;;;;;8.82;2.90;;;;;;;25.83;32.83;97027.00;5023546;28;20824;-32
2021/11/07 08:19:19;;;;;;;10.60;3.03;;;;;;;25.83;32.86;97013.88;5023751;28;20025;-33
2021/11/07 08:21:45;;;;;;;8.00;3.03;;;;;;;25.85;32.77;97024.28;5033954;28;20494;-32
2021/11/07 08:24:11;;;;;;;6.82;2.60;;;;;;;25.85;32.47;97016.41;5024924;28;20032;-39
2021/11/07 08:26:40;;;;;;;9.05;2.88;;;;;;;25.86;32.71;97006.78;5022256;28;20033;-33
2021/11/07 08:29:07;;;;;;;14.82;3.33;;;;;;;25.85;32.75;96999.84;5024458;28;20510;-33
2021/11/07 08:31:34;;;;;;;9.45;2.95;;;;;;;25.87;32.77;96984.84;5040242;28;20025;-36
2021/11/07 08:34:02;;;;;;;7.85;3.20;;;;;;;25.87;32.78;96976.97;5023140;28;20036;-35
2021/11/07 08:36:37;;;;;;;9.07;3.15;;;;;;;25.88;32.82;96989.16;5025143;28;20183;-33
2021/11/07 08:39:07;;;;;;;7.18;2.85;;;;;;;25.89;32.71;96975.13;5022920;28;20031;-38
2021/11/07 08:41:33;;;;;;;10.05;3.05;;;;;;;25.89;32.65;96973.34;5024245;28;20055;-34
2021/11/07 09:00:28;;;;;;;6.63;2.03;;;;;;;25.92;32.82;96970.56;5036483;28;20741;-35
2021/11/07 09:03:10;;;;;;;9.57;2.22;;;;;;;25.92;32.71;96965.31;5022875;28;20029;-29
2021/11/07 09:05:53;;;;;;;5.85;2.40;;;;;;;25.92;32.74;96961.81;5024874;28;20543;-33
2021/11/07 09:08:19;;;;;;;5.47;2.40;;;;;;;25.93;32.71;96958.28;5023851;28;20029;-31
2021/11/07 09:10:45;;;;;;;8.82;2.42;;;;;;;25.94;32.96;96944.22;5022344;28;20021;-31
2021/11/07 09:13:11;;;;;;;6.20;2.13;;;;;;;25.95;32.81;96940.66;5022066;28;20029;-36
2021/11/07 09:15:39;;;;;;;7.20;2.05;;;;;;;25.95;32.95;96938.91;5022696;28;20738;-33
2021/11/07 09:18:04;;;;;;;9.82;2.15;;;;;;;25.95;33.01;96933.66;5037620;28;20021;-32
2021/11/07 09:26:26;;;;;;;6.38;4.50;;;;;;;25.83;26.85;96924.59;4981496;28;20049;-35
2021/11/07 09:29:21;;;;;;;7.68;4.40;;;;;;;25.61;25.69;96924.00;5003155;28;20037;-32
2021/11/07 09:34:49;;;;;;;11.82;2.95;;;;;;;25.28;27.16;96918.56;5020432;28;20091;-29
2021/11/07 09:39:58;;;;;;;5.28;2.25;;;;;;;25.18;28.26;96938.28;5024965;28;20098;-28
2021/11/07 09:43:16;;;;;;;6.15;2.20;;;;;;;25.16;28.59;96932.25;5021445;28;20022;-32
2021/11/07 09:45:21;;;;;;;4.95;1.92;;;;;;;25.16;29.06;96927.00;5014731;28;20774;-31
2021/11/07 09:47:52;;;;;;;3.13;1.60;;;;;;;25.19;29.39;96924.25;5015266;28;20030;-31
2021/11/07 09:50:17;;;;;;;9.47;1.97;;;;;;;25.21;29.35;96925.03;5016330;28;20038;-37
2021/11/07 09:52:50;;;;;;;4.07;1.88;;;;;;;25.23;29.69;96910.06;5019599;28;20075;-32
2021/11/07 09:55:20;;;;;;;6.20;2.30;;;;;;;25.26;29.55;96916.94;5016846;28;20119;-35
2021/11/07 09:57:47;;;;;;;14.55;2.78;;;;;;;25.28;29.54;96913.31;5019844;28;20025;-34
2021/11/07 10:00:15;;;;;;;13.02;3.22;;;;;;;25.30;29.68;96919.34;5024062;28;20549;-33
2021/11/07 10:02:40;;;;;;;16.05;3.08;;;;;;;25.31;29.88;96910.53;5023541;28;20110;-31
2021/11/07 10:05:07;;;;;;;19.25;3.40;;;;;;;25.34;30.02;96917.41;5018720;28;20551;-31
2021/11/07 10:07:35;;;;;;;16.60;3.28;;;;;;;25.36;30.01;96914.72;5020624;28;20028;-31
2021/11/07 10:10:07;;;;;;;15.07;2.88;;;;;;;25.38;30.06;96910.22;5023667;28;20030;-36
2021/11/07 10:12:37;;;;;;;10.50;3.00;;;;;;;25.39;30.35;96909.28;5027844;28;20029;-35
2021/11/07 10:15:05;;;;;;;20.27;5.70;;;;;;;25.41;30.45;96907.47;5024240;28;20093;-32
2021/11/07 10:17:48;;;;;;;15.88;5.18;;;;;;;25.43;30.71;96903.84;5021332;28;20127;-32
2021/11/07 10:20:54;;;;;;;17.08;4.18;;;;;;;25.47;30.77;96895.81;5022621;28;20048;-31
2021/11/07 10:23:33;;;;;;;16.55;3.95;;;;;;;25.51;30.87;96895.56;5023882;28;20048;-31
2021/11/07 10:26:13;;;;;;;12.07;3.78;;;;;;;25.53;31.02;96880.63;5026181;28;20035;-36
2021/11/07 10:31:33;;;;;;;15.55;3.70;;;;;;;25.59;31.05;96868.13;5031049;28;20033;-36
2021/11/07 10:34:22;;;;;;;15.48;3.90;;;;;;;25.63;31.22;96874.94;5030649;28;20108;-34
2021/11/07 10:53:57;;;;;;;11.85;2.85;;;;;;;25.45;27.59;96872.28;5027834;28;20741;-34
2021/11/07 10:56:23;;;;;;;9.23;2.40;;;;;;;25.43;27.85;96876.75;5027974;28;20029;-32
2021/11/07 10:58:48;;;;;;;8.65;2.40;;;;;;;25.40;27.52;96874.28;5026683;28;20130;-35
2021/11/07 11:01:20;;;;;;;11.88;2.67;;;;;;;25.38;27.44;96866.50;5029430;28;20017;-30
2021/11/07 11:03:53;;;;;;;10.45;2.78;;;;;;;25.35;27.43;96855.31;5027748;28;20041;-34
2021/11/07 11:06:19;;;;;;;13.10;2.33;;;;;;;25.33;27.27;96854.53;5028493;28;20025;-30
2021/11/07 11:08:56;;;;;;;9.23;2.83;;;;;;;25.29;27.24;96846.81;5031789;28;20464;-33
2021/11/07 11:33:00;;;;;;;7.20;2.53;;;;;;;25.25;28.09;96857.53;5031524;28;20084;-33
2021/11/07 11:35:32;;;;;;;4.70;2.13;;;;;;;25.25;28.35;96854.91;5028457;28;20078;-37
2021/11/07 11:43:33;;;;;;;5.25;1.90;;;;;;;25.27;28.40;96856.53;5029705;28;20575;-30
2021/11/07 11:46:05;;;;;;;4.07;1.80;;;;;;;25.24;28.13;96843.56;5029631;28;20385;-37
2021/11/07 11:51:50;;;;;;;8.45;1.98;;;;;;;25.25;28.16;96834.75;5032938;28;20071;-34
2021/11/07 11:57:39;;;;;;;3.78;1.50;;;;;;;25.24;28.24;96822.59;5028363;28;20052;-35
2021/11/07 12:00:22;;;;;;;3.70;1.58;;;;;;;25.22;28.11;96813.97;5026757;28;20028;-35
2021/11/07 12:03:53;;;;;;;2.40;1.02;;;;;;;25.22;28.12;96813.97;5027189;28;20017;-34
2021/11/07 12:05:51;;;;;;;2.83;1.40;;;;;;;25.19;28.05;96816.72;5015493;28;20037;-31
2021/11/07 12:08:25;;;;;;;5.90;1.50;;;;;;;25.18;27.64;96817.66;5028681;28;20721;-31
2021/11/07 12:11:03;;;;;;;6.93;1.88;;;;;;;25.15;27.66;96817.81;5027570;28;20033;-37
2021/11/07 12:13:40;;;;;;;9.25;2.13;;;;;;;25.12;27.63;96838.94;5046657;28;20021;-35
2021/11/07 12:16:28;;;;;;;6.15;2.10;;;;;;;25.10;27.67;96827.69;5030285;28;20070;-33
2021/11/07 12:19:08;;;;;;;9.60;1.75;;;;;;;25.08;27.72;96811.16;5030887;28;20033;-34
2021/11/07 12:21:50;;;;;;;;;;;;;;;25.05;27.73;96815.66;5030248;28;20109;-32
2021/11/07 12:24:15;;;;;;;5.43;1.77;;;;;;;25.05;27.98;96807.78;5029489;28;19923;-31
2021/11/07 12:26:41;;;;;;;6.78;1.33;;;;;;;25.05;28.09;96796.44;5030142;28;20041;-34
2021/11/07 12:29:06;;;;;;;6.82;1.73;;;;;;;25.04;28.02;96800.84;5028858;28;20028;-32
2021/11/07 12:31:32;;;;;;;4.88;1.77;;;;;;;25.04;28.08;96799.97;5044505;28;20052;-36
2021/11/07 12:34:06;;;;;;;3.63;1.33;;;;;;;25.05;28.18;96799.06;5029791;28;20037;-35
2021/11/07 12:36:40;;;;;;;5.80;1.65;;;;;;;25.03;28.29;96793.91;5045845;28;20171;-32
2021/11/07 12:42:22;;;;;;;8.40;1.42;;;;;;;25.05;28.18;96802.53;5028325;28;20529;-30
2021/11/07 12:44:51;;;;;;;4.13;1.75;;;;;;;25.05;28.30;96799.91;5011774;28;20120;-37
2021/11/07 12:47:22;;;;;;;5.55;1.55;;;;;;;25.07;28.20;96788.50;5030594;28;20479;-33
2021/11/07 12:49:59;;;;;;;3.33;1.20;;;;;;;25.08;28.26;96800.66;5030228;28;20025;-34
2021/11/07 12:52:25;;;;;;;3.00;1.40;;;;;;;25.08;28.04;96795.44;5029963;28;20102;-30
2021/11/07 12:54:50;;;;;;;1.67;0.85;;;;;;;25.07;28.08;96789.34;5029477;28;20037;-32
2021/11/07 12:57:17;;;;;;;3.88;1.35;;;;;;;25.07;28.18;96796.34;5030243;28;20025;-32
2021/11/07 12:59:43;;;;;;;3.58;1.45;;;;;;;25.05;27.99;96789.44;5046594;28;20056;-28
2021/11/07 13:02:18;;;;;;;4.15;1.48;;;;;;;25.04;27.81;96784.25;5028075;28;20021;-34
2021/11/07 13:04:47;;;;;;;2.75;1.83;;;;;;;25.03;27.90;96793.91;5026965;28;20119;-33
2021/11/07 13:07:22;;;;;;;2.65;1.50;;;;;;;25.02;27.79;96786.94;5029597;28;20479;-32
2021/11/07 13:09:53;;;;;;;2.70;1.40;;;;;;;25.01;27.93;96798.38;5029352;28;20124;-29
2021/11/07 13:12:23;;;;;;;;;;;;;;;25.01;27.81;96795.75;5027668;28;20048;-31
2021/11/07 13:17:45;;;;;;;3.25;2.05;;;;;;;24.99;27.90;96795.00;5029428;28;20037;-32
2021/11/07 13:20:37;;;;;;;2.08;1.58;;;;;;;24.98;27.76;96795.06;5041271;28;20112;-34
2021/11/07 13:26:20;;;;;;;3.22;1.60;;;;;;;24.96;27.91;96803.00;5006643;28;20144;-33
2021/11/07 13:31:11;;;;;;;2.17;1.10;;;;;;;24.95;27.99;96803.94;5029008;28;20029;-31
2021/11/07 13:33:41;;;;;;;2.40;1.30;;;;;;;24.95;28.15;96800.44;5043676;28;20033;-33
2021/11/07 13:36:07;;;;;;;4.25;1.45;;;;;;;24.95;28.14;96787.34;5030453;28;20064;-33
2021/11/07 13:39:00;;;;;;;2.45;1.27;;;;;;;24.94;28.21;96791.72;5030463;28;20484;-35
2021/11/07 13:41:26;;;;;;;;;;;;;;;24.95;28.31;96782.97;5034114;28;20100;-35
2021/11/07 13:44:06;;;;;;;3.08;1.20;;;;;;;24.96;28.49;96787.25;5035161;28;19975;-34
2021/11/07 13:46:34;;;;;;;3.20;1.02;;;;;;;24.95;28.41;96796.06;5034049;28;20086;-34
2021/11/07 13:49:03;;;;;;;1.70;1.10;;;;;;;24.95;28.27;96793.44;5029565;28;20071;-35
2021/11/07 13:51:34;;;;;;;2.58;1.02;;;;;;;24.94;28.48;96794.34;5032984;28;20029;-33
2021/11/07 13:54:01;;;;;;;1.00;0.70;;;;;;;24.95;28.49;96785.56;5034523;28;20435;-34
2021/11/07 13:56:26;;;;;;;1.88;0.65;;;;;;;24.94;28.58;96789.09;5032438;28;20039;-29
2021/11/07 13:58:51;;;;;;;2.10;0.90;;;;;;;24.95;28.70;96787.34;5033071;28;20029;-32
2021/11/07 14:01:17;;;;;;;1.95;0.93;;;;;;;24.93;28.67;96774.31;5032201;28;20022;-29